Time;durP1;ratioP1;P1;durP2;ratioP2;P2;SDS_P1;SDS_P2;PMS_P1;PMS_P2;Temp;Humidity;BMP_temperature;BMP_pressure;BME280_temperature;BME280_humidity;BME280_pressure;Samples;Min_cycle;Max_cycle;Signal;HPM_P1;HPM_P2
2023/11/25 00:01:57;;;;;;;1.30;0.50;;;;;;;20.67;26.03;99820.38;4407045;29;20053;-64
2023/11/25 00:04:08;;;;;;;0.57;0.32;;;;;;;20.66;26.20;99816.69;4405531;29;20043;-65
2023/11/25 00:06:20;;;;;;;1.10;0.50;;;;;;;20.66;25.38;99821.59;4405581;29;20047;-64
2023/11/25 00:08:31;;;;;;;0.82;0.50;;;;;;;20.65;26.05;99814.19;4406227;29;20048;-64
2023/11/25 00:10:41;;;;;;;1.35;0.60;;;;;;;20.65;25.81;99817.06;4406566;29;20892;-64
2023/11/25 00:12:53;;;;;;;1.75;0.50;;;;;;;20.66;25.94;99821.59;4406362;29;20048;-64
2023/11/25 00:15:04;;;;;;;1.70;0.90;;;;;;;20.65;26.05;99825.66;4406203;29;20048;-64
2023/11/25 00:17:14;;;;;;;2.40;1.33;;;;;;;20.64;26.02;99829.75;4405819;29;20192;-64
2023/11/25 00:19:25;;;;;;;3.78;1.73;;;;;;;20.64;26.14;99829.75;4406852;29;20135;-64
2023/11/25 00:21:35;;;;;;;3.80;2.05;;;;;;;20.65;25.95;99831.41;4406201;29;20048;-64
2023/11/25 00:23:45;;;;;;;2.28;1.40;;;;;;;20.65;25.93;99834.28;4405270;29;26723;-64
2023/11/25 00:25:57;;;;;;;1.08;0.98;;;;;;;20.64;26.03;99842.03;4406203;29;20036;-64
2023/11/25 00:28:09;;;;;;;1.13;0.60;;;;;;;20.64;25.65;99836.28;4405947;29;20125;-64
2023/11/25 00:30:23;;;;;;;0.80;0.55;;;;;;;20.64;25.86;99846.97;4406322;29;20064;-64
2023/11/25 00:32:37;;;;;;;1.50;0.60;;;;;;;20.63;25.73;99846.13;4406169;29;20097;-64
2023/11/25 00:34:48;;;;;;;0.68;0.50;;;;;;;20.64;25.74;99852.69;4406065;29;20919;-64
2023/11/25 00:36:58;;;;;;;0.93;0.70;;;;;;;20.64;25.86;99853.50;4387950;29;20037;-64
2023/11/25 00:39:10;;;;;;;1.27;0.70;;;;;;;20.64;25.57;99859.25;4389736;29;20045;-65
2023/11/25 00:41:20;;;;;;;1.08;0.80;;;;;;;20.62;25.68;99855.13;4389441;29;20049;-64
2023/11/25 00:43:32;;;;;;;1.38;0.70;;;;;;;20.62;25.72;99860.84;4388841;29;20045;-64
2023/11/25 00:45:42;;;;;;;1.38;0.60;;;;;;;20.62;26.10;99850.22;4404363;29;20044;-64
2023/11/25 00:47:53;;;;;;;1.90;0.90;;;;;;;20.62;26.12;99853.09;4405885;29;20040;-64
2023/11/25 00:50:07;;;;;;;1.40;0.50;;;;;;;20.61;26.19;99850.59;4388195;29;20045;-64
2023/11/25 00:52:17;;;;;;;1.15;0.57;;;;;;;20.62;25.78;99849.38;4388008;29;20049;-64
2023/11/25 00:54:29;;;;;;;1.00;0.60;;;;;;;20.63;25.82;99846.13;4387810;29;20033;-64
2023/11/25 00:56:39;;;;;;;1.02;0.60;;;;;;;20.61;26.36;99851.41;4403622;29;20047;-64
2023/11/25 00:58:50;;;;;;;0.80;0.50;;;;;;;20.62;25.89;99860.84;4405472;29;20147;-64
2023/11/25 01:01:00;;;;;;;0.70;0.50;;;;;;;20.61;26.00;99865.75;4403806;29;20102;-64
2023/11/25 01:03:10;;;;;;;0.85;0.60;;;;;;;20.62;26.06;99863.72;4387377;29;20077;-64
2023/11/25 01:05:21;;;;;;;0.73;0.60;;;;;;;20.61;26.07;99876.41;4404938;29;20051;-64
2023/11/25 01:07:32;;;;;;;1.88;0.73;;;;;;;20.61;26.21;99887.88;4387079;29;20037;-64
2023/11/25 01:09:42;;;;;;;1.02;0.47;;;;;;;20.60;26.39;99886.19;4405674;29;20059;-64
2023/11/25 01:11:54;;;;;;;0.75;0.40;;;;;;;20.60;26.08;99886.19;4389248;29;20041;-64
2023/11/25 01:14:05;;;;;;;1.08;0.30;;;;;;;20.60;26.05;99892.78;4404257;29;20040;-64
2023/11/25 01:16:16;;;;;;;0.77;0.40;;;;;;;20.60;26.30;99903.41;4387122;29;20033;-64
2023/11/25 01:18:27;;;;;;;0.52;0.40;;;;;;;20.60;26.54;99903.41;4388781;29;20091;-64
2023/11/25 01:20:37;;;;;;;0.85;0.32;;;;;;;20.60;26.54;99897.66;4404935;29;20507;-64
2023/11/25 01:22:47;;;;;;;0.50;0.40;;;;;;;20.59;26.49;99898.91;4389102;29;20060;-64
2023/11/25 01:24:58;;;;;;;0.40;0.30;;;;;;;20.58;26.68;99905.84;4403674;29;20141;-64
2023/11/25 01:27:08;;;;;;;1.30;0.50;;;;;;;20.59;26.39;99904.63;4387530;29;20554;-64
2023/11/25 01:29:19;;;;;;;1.33;0.47;;;;;;;20.58;26.44;99897.25;4387213;29;20098;-64
2023/11/25 01:31:29;;;;;;;0.75;0.32;;;;;;;20.59;26.27;99894.00;4387658;29;20550;-64
2023/11/25 01:33:43;;;;;;;0.70;0.40;;;;;;;20.58;26.52;99902.97;4388408;29;20048;-64
2023/11/25 01:35:53;;;;;;;0.77;0.40;;;;;;;20.59;26.68;99907.50;4405293;29;20048;-64
2023/11/25 01:38:04;;;;;;;0.35;0.30;;;;;;;20.58;26.71;99906.66;4405755;29;20060;-64
2023/11/25 01:40:15;;;;;;;0.75;0.30;;;;;;;20.59;26.62;99907.50;4404344;29;20047;-65
2023/11/25 01:42:25;;;;;;;0.32;0.30;;;;;;;20.59;26.67;99916.09;4404151;29;20832;-64
2023/11/25 01:44:36;;;;;;;0.35;0.30;;;;;;;20.59;26.57;99914.06;4390175;29;20099;-64
2023/11/25 01:46:48;;;;;;;0.32;0.20;;;;;;;20.59;26.74;99914.06;4386870;29;20049;-64
2023/11/25 01:48:59;;;;;;;1.10;0.38;;;;;;;20.59;27.06;99913.22;4404341;29;20053;-64
2023/11/25 01:51:10;;;;;;;0.60;0.40;;;;;;;20.59;26.53;99916.09;4404424;29;20589;-64
2023/11/25 01:53:21;;;;;;;0.40;0.40;;;;;;;20.59;26.61;99910.38;4404720;29;20120;-64
2023/11/25 01:55:32;;;;;;;0.30;0.30;;;;;;;20.59;26.71;99910.38;4404423;29;20048;-64
2023/11/25 01:57:43;;;;;;;0.43;0.30;;;;;;;20.59;26.52;99910.38;4387107;29;20037;-64
2023/11/25 01:59:55;;;;;;;0.60;0.40;;;;;;;20.59;26.50;99916.09;4386618;29;20056;-64
2023/11/25 02:02:06;;;;;;;0.75;0.43;;;;;;;20.59;26.58;99913.22;4390341;29;20029;-64
2023/11/25 02:04:17;;;;;;;1.00;0.40;;;;;;;20.58;26.69;99918.13;4387979;29;20049;-64
2023/11/25 02:06:27;;;;;;;0.90;0.40;;;;;;;20.59;26.91;99916.09;4405102;29;20064;-64
2023/11/25 02:08:38;;;;;;;0.63;0.38;;;;;;;20.58;26.89;99915.25;4404417;29;20051;-64
2023/11/25 02:10:50;;;;;;;0.55;0.30;;;;;;;20.57;26.68;99915.66;4404486;29;20633;-64
2023/11/25 02:13:02;;;;;;;0.52;0.40;;;;;;;20.57;26.77;99916.47;4403951;29;20037;-64
2023/11/25 02:15:14;;;;;;;0.68;0.30;;;;;;;20.57;26.99;99925.09;4404786;29;20040;-64
2023/11/25 02:17:24;;;;;;;1.10;0.40;;;;;;;20.57;26.70;99919.34;4390121;29;20048;-64
2023/11/25 02:19:36;;;;;;;0.55;0.30;;;;;;;20.57;26.78;99930.81;4370393;29;20518;-64
2023/11/25 02:21:47;;;;;;;0.52;0.30;;;;;;;20.57;27.05;99918.50;4390128;29;20778;-64
2023/11/25 02:23:57;;;;;;;0.40;0.40;;;;;;;20.57;26.78;99932.84;4404532;29;20056;-64
2023/11/25 02:26:08;;;;;;;1.65;0.35;;;;;;;20.57;27.06;99924.25;4404004;29;20108;-64
2023/11/25 02:28:20;;;;;;;0.95;0.50;;;;;;;20.57;26.85;99924.25;4387114;29;20041;-64
2023/11/25 02:30:31;;;;;;;0.52;0.40;;;;;;;20.57;27.50;99929.97;4387901;29;20068;-64
2023/11/25 02:32:42;;;;;;;0.88;0.35;;;;;;;20.56;27.36;99940.66;4404535;29;20088;-64
2023/11/25 02:34:53;;;;;;;0.52;0.20;;;;;;;20.56;27.26;99937.78;4405324;29;20096;-64
2023/11/25 02:37:06;;;;;;;0.63;0.32;;;;;;;20.57;27.01;99938.59;4385836;29;20055;-65
2023/11/25 02:39:18;;;;;;;0.68;0.28;;;;;;;20.55;27.09;99932.44;4388143;29;20616;-64
2023/11/25 02:41:29;;;;;;;0.77;0.38;;;;;;;20.55;27.15;99936.09;4403968;29;20040;-64
2023/11/25 02:43:39;;;;;;;0.70;0.30;;;;;;;20.55;27.33;99935.28;4403647;29;20053;-65
2023/11/25 02:45:49;;;;;;;0.73;0.40;;;;;;;20.54;27.10;99937.31;4403924;29;20064;-65
2023/11/25 02:48:00;;;;;;;0.80;0.40;;;;;;;20.54;27.48;99936.47;4404080;29;20047;-65
2023/11/25 02:50:10;;;;;;;0.88;0.30;;;;;;;20.55;26.98;99932.44;4404089;29;20040;-65
2023/11/25 02:52:24;;;;;;;0.45;0.30;;;;;;;20.53;27.19;99932.78;4402123;29;20054;-64
2023/11/25 02:54:34;;;;;;;0.55;0.43;;;;;;;20.54;27.35;99930.75;4403131;29;20221;-64
2023/11/25 02:56:45;;;;;;;0.82;0.32;;;;;;;20.53;27.31;99932.78;4387455;29;20090;-64
2023/11/25 02:58:55;;;;;;;0.55;0.30;;;;;;;20.53;27.55;99927.03;4403649;29;20032;-64
2023/11/25 03:01:07;;;;;;;0.85;0.30;;;;;;;20.53;27.27;99929.09;4386875;29;20076;-64
2023/11/25 03:03:22;;;;;;;0.47;0.38;;;;;;;20.53;27.47;99917.63;4403832;29;20925;-64
2023/11/25 03:05:33;;;;;;;0.63;0.40;;;;;;;20.52;27.63;99925.41;4403735;29;20148;-64
2023/11/25 03:07:44;;;;;;;0.35;0.30;;;;;;;20.53;27.34;99914.78;4403515;29;20044;-64
2023/11/25 03:09:55;;;;;;;0.32;0.30;;;;;;;20.53;27.90;99937.72;4403819;29;20080;-64
2023/11/25 03:12:05;;;;;;;1.38;0.30;;;;;;;20.54;27.31;99925.00;4385791;29;20116;-64
2023/11/25 03:14:16;;;;;;;0.50;0.32;;;;;;;20.52;27.41;99913.94;4385429;29;20037;-65
2023/11/25 03:16:26;;;;;;;0.57;0.35;;;;;;;20.52;27.72;99918.81;4403302;29;20041;-65
2023/11/25 03:18:37;;;;;;;0.28;0.20;;;;;;;20.52;27.58;99915.97;4387696;29;20070;-64
2023/11/25 03:20:48;;;;;;;0.68;0.40;;;;;;;20.52;27.60;99907.38;4401944;29;20087;-64
2023/11/25 03:23:01;;;;;;;0.70;0.40;;;;;;;20.52;27.87;99930.28;4387940;29;20041;-64
2023/11/25 03:25:13;;;;;;;0.82;0.30;;;;;;;20.53;27.89;99914.78;4387747;29;20048;-64
2023/11/25 03:27:24;;;;;;;0.90;0.35;;;;;;;20.51;27.84;99902.84;4402863;29;20131;-64
2023/11/25 03:29:35;;;;;;;0.70;0.40;;;;;;;20.52;27.75;99901.63;4403315;29;20512;-64
2023/11/25 03:31:45;;;;;;;0.85;0.30;;;;;;;20.51;27.54;99912.28;4387867;29;20055;-64
2023/11/25 03:33:55;;;;;;;1.08;0.40;;;;;;;20.52;27.60;99904.50;4403489;29;20028;-65
2023/11/25 03:36:07;;;;;;;0.63;0.40;;;;;;;20.53;27.45;99914.78;4402903;29;20575;-64
2023/11/25 03:38:17;;;;;;;0.50;0.32;;;;;;;20.51;27.66;99912.28;4404503;29;20043;-64
2023/11/25 03:40:28;;;;;;;0.47;0.40;;;;;;;20.52;27.47;99924.56;4403316;29;20051;-64
2023/11/25 03:42:40;;;;;;;0.52;0.40;;;;;;;20.51;27.65;99920.88;4403716;29;20127;-64
2023/11/25 03:44:50;;;;;;;0.85;0.60;;;;;;;20.53;28.34;99914.78;4403096;29;20127;-64
2023/11/25 03:47:03;;;;;;;1.13;0.40;;;;;;;20.52;27.54;99924.56;4402718;29;20048;-64
2023/11/25 03:49:13;;;;;;;1.35;0.50;;;;;;;20.52;27.63;99907.38;4403548;29;20041;-64
2023/11/25 03:51:24;;;;;;;0.75;0.30;;;;;;;20.53;27.61;99897.56;4404891;29;20056;-64
2023/11/25 03:53:35;;;;;;;0.98;0.30;;;;;;;20.52;28.25;99905.34;4403627;29;20096;-64
2023/11/25 03:55:45;;;;;;;0.88;0.30;;;;;;;20.53;27.75;99906.97;4386776;29;20041;-64
2023/11/25 03:57:55;;;;;;;0.57;0.32;;;;;;;20.51;27.75;99897.97;4386412;29;20399;-64
2023/11/25 04:00:16;;;;;;;0.60;0.40;;;;;;;20.52;27.75;99913.94;4403652;29;20044;-64
2023/11/25 04:02:26;;;;;;;0.60;0.40;;;;;;;20.52;27.85;99907.38;4403075;29;20050;-64
2023/11/25 04:04:36;;;;;;;0.50;0.40;;;;;;;20.51;27.71;99899.97;4403626;29;20047;-65
2023/11/25 04:06:47;;;;;;;1.13;0.40;;;;;;;20.52;27.77;99901.63;4403499;29;20097;-65
2023/11/25 04:08:57;;;;;;;0.68;0.45;;;;;;;20.51;28.02;99886.50;4403783;29;21001;-65
2023/11/25 04:11:08;;;;;;;0.80;0.40;;;;;;;20.51;27.64;99880.75;4385289;29;20041;-64
2023/11/25 04:13:18;;;;;;;0.85;0.45;;;;;;;20.50;27.97;99870.47;4386228;29;20041;-64
2023/11/25 04:15:29;;;;;;;0.70;0.40;;;;;;;20.50;27.74;99863.94;4402616;29;20041;-64
2023/11/25 04:17:39;;;;;;;0.77;0.43;;;;;;;20.49;27.44;99885.19;4403073;29;20045;-65
2023/11/25 04:19:50;;;;;;;1.30;0.40;;;;;;;20.50;27.66;99872.53;4402739;29;20041;-65
2023/11/25 04:22:00;;;;;;;1.05;0.40;;;;;;;20.50;27.83;99881.13;4403114;29;20039;-65
2023/11/25 04:24:11;;;;;;;0.70;0.40;;;;;;;20.50;27.74;99881.13;4403903;29;20143;-64
2023/11/25 04:26:24;;;;;;;0.55;0.40;;;;;;;20.49;27.67;99873.72;4386252;29;20140;-64
2023/11/25 04:28:34;;;;;;;1.40;0.50;;;;;;;20.50;27.80;99869.66;4384942;29;20045;-64
2023/11/25 04:30:45;;;;;;;0.95;0.55;;;;;;;20.49;27.41;99871.69;4402688;29;20045;-64
2023/11/25 04:32:55;;;;;;;1.30;0.50;;;;;;;20.49;27.40;99856.53;4405351;29;20075;-64
2023/11/25 04:35:07;;;;;;;0.80;0.40;;;;;;;20.50;27.49;99855.34;4406409;29;20097;-64
2023/11/25 04:37:19;;;;;;;1.80;0.60;;;;;;;20.50;27.80;99863.94;4387840;29;21215;-64
2023/11/25 04:39:29;;;;;;;1.35;0.60;;;;;;;20.50;27.72;99855.34;4405847;29;20036;-64
2023/11/25 04:41:41;;;;;;;1.30;0.60;;;;;;;20.50;27.39;99852.47;4405177;29;23851;-65
2023/11/25 04:43:52;;;;;;;1.70;0.57;;;;;;;20.49;27.72;99848.78;4405662;29;20120;-64
2023/11/25 04:46:04;;;;;;;2.10;0.82;;;;;;;20.49;27.76;99845.91;4405648;29;20089;-64
2023/11/25 04:48:14;;;;;;;0.93;0.60;;;;;;;20.49;27.65;99879.47;4405533;29;20124;-64
2023/11/25 04:50:26;;;;;;;1.27;0.50;;;;;;;20.49;27.60;99871.69;4405311;29;20442;-64
2023/11/25 04:52:36;;;;;;;0.90;0.65;;;;;;;20.48;27.90;99869.22;4404999;29;20044;-64
2023/11/25 04:54:48;;;;;;;1.65;0.68;;;;;;;20.48;27.74;99867.19;4403200;29;23120;-64
2023/11/25 04:57:01;;;;;;;1.25;0.60;;;;;;;20.49;27.84;99856.53;4404722;29;20876;-64
2023/11/25 04:59:12;;;;;;;2.40;0.80;;;;;;;20.48;27.45;99858.59;4405520;29;20040;-64
2023/11/25 05:01:22;;;;;;;1.00;0.63;;;;;;;20.48;27.56;99866.34;4404934;29;23736;-64
2023/11/25 05:03:33;;;;;;;1.20;0.80;;;;;;;20.48;27.36;99864.31;4390386;29;20060;-64
2023/11/25 05:05:43;;;;;;;1.13;0.65;;;;;;;20.48;27.64;99863.50;4407031;29;20120;-64
2023/11/25 05:07:54;;;;;;;1.77;0.70;;;;;;;20.48;27.59;99864.31;4406378;29;20562;-64
2023/11/25 05:10:06;;;;;;;2.42;0.80;;;;;;;20.48;27.41;99863.50;4405845;29;20408;-64
2023/11/25 05:12:19;;;;;;;2.20;0.80;;;;;;;20.48;27.46;99854.88;4389091;29;20918;-64
2023/11/25 05:14:29;;;;;;;1.58;0.82;;;;;;;20.48;27.73;99849.16;4405267;29;20041;-64
2023/11/25 05:16:40;;;;;;;1.33;0.60;;;;;;;20.48;27.74;99846.28;4404793;29;20044;-64
2023/11/25 05:18:50;;;;;;;1.45;0.70;;;;;;;20.48;27.58;99846.28;4405439;29;20133;-64
2023/11/25 05:21:02;;;;;;;1.13;0.70;;;;;;;20.49;27.74;99851.63;4404715;29;20300;-64
2023/11/25 05:23:12;;;;;;;1.45;0.90;;;;;;;20.49;27.79;99851.63;4405286;29;20593;-64
2023/11/25 05:25:23;;;;;;;2.08;0.90;;;;;;;20.48;27.71;99849.16;4405151;29;20048;-64
2023/11/25 05:27:33;;;;;;;1.35;0.80;;;;;;;20.47;27.56;99851.19;4387828;29;20048;-64
2023/11/25 05:29:43;;;;;;;1.80;1.00;;;;;;;20.47;27.64;99836.03;4404659;29;20119;-64
2023/11/25 05:31:54;;;;;;;1.80;1.20;;;;;;;20.48;27.51;99837.69;4406070;29;20050;-64
2023/11/25 05:34:05;;;;;;;0.90;0.70;;;;;;;20.47;27.37;99836.03;4404830;29;20048;-64
2023/11/25 05:36:15;;;;;;;1.55;0.70;;;;;;;20.47;27.44;99830.31;4388428;29;20555;-65
2023/11/25 05:38:29;;;;;;;1.63;0.90;;;;;;;20.47;27.69;99836.03;4404734;29;20035;-64
2023/11/25 05:40:40;;;;;;;2.47;1.00;;;;;;;20.46;27.49;99840.94;4404248;29;20120;-64
2023/11/25 05:42:53;;;;;;;2.28;1.02;;;;;;;20.47;27.81;99841.78;4405075;29;20056;-64
2023/11/25 05:45:08;;;;;;;1.67;0.90;;;;;;;20.46;27.80;99837.25;4404088;28;20449;-65
2023/11/25 05:47:18;;;;;;;2.88;1.30;;;;;;;20.46;27.81;99840.94;4403848;29;20096;-64
2023/11/25 05:49:29;;;;;;;1.67;0.93;;;;;;;20.45;27.69;99824.97;4404308;29;20103;-64
2023/11/25 05:51:42;;;;;;;1.65;0.90;;;;;;;20.46;27.56;99834.38;4404145;29;24410;-64
2023/11/25 05:53:52;;;;;;;2.65;0.90;;;;;;;20.46;27.66;99823.75;4403929;29;20044;-64
2023/11/25 05:56:03;;;;;;;1.35;1.00;;;;;;;20.47;27.84;99824.56;4403988;29;24818;-64
2023/11/25 05:58:13;;;;;;;2.15;1.00;;;;;;;20.47;27.71;99813.13;4403837;29;20041;-65
2023/11/25 06:00:24;;;;;;;1.77;0.93;;;;;;;20.47;27.81;99808.19;4405023;29;20049;-65
2023/11/25 06:02:34;;;;;;;2.13;1.00;;;;;;;20.46;27.53;99811.44;4405150;29;20398;-64
2023/11/25 06:04:45;;;;;;;2.35;0.90;;;;;;;20.46;27.91;99820.03;4405094;29;20078;-64
2023/11/25 06:06:55;;;;;;;1.33;0.80;;;;;;;20.46;27.59;99823.75;4404833;29;20036;-65
2023/11/25 06:09:11;;;;;;;1.73;0.90;;;;;;;20.45;27.65;99827.84;4404357;29;20071;-65
2023/11/25 06:11:23;;;;;;;1.10;0.70;;;;;;;20.46;27.79;99828.63;4403877;29;21495;-65
2023/11/25 06:13:33;;;;;;;1.40;1.00;;;;;;;20.45;27.62;99822.09;4404610;29;20135;-64
2023/11/25 06:15:43;;;;;;;1.63;0.90;;;;;;;20.46;27.72;99811.44;4404207;29;20051;-64
2023/11/25 06:17:54;;;;;;;1.92;0.90;;;;;;;20.46;27.80;99818.00;4403785;29;20049;-64
2023/11/25 06:20:05;;;;;;;2.40;0.90;;;;;;;20.47;27.68;99815.97;4405542;29;20502;-64
2023/11/25 06:22:16;;;;;;;1.27;0.75;;;;;;;20.47;27.69;99816.78;4404474;29;20131;-64
2023/11/25 06:24:26;;;;;;;1.60;1.02;;;;;;;20.47;28.16;99813.13;4404857;29;20092;-64
2023/11/25 06:26:36;;;;;;;1.75;0.98;;;;;;;20.46;27.77;99817.16;4403988;29;20047;-64
2023/11/25 06:28:47;;;;;;;3.67;1.00;;;;;;;20.45;28.04;99812.66;4404429;29;20044;-65
2023/11/25 06:30:58;;;;;;;2.17;0.90;;;;;;;20.45;27.96;99815.53;4404679;29;20040;-64
2023/11/25 06:33:08;;;;;;;2.83;0.98;;;;;;;20.46;27.75;99809.41;4404347;29;20159;-65
2023/11/25 06:35:19;;;;;;;1.45;0.80;;;;;;;20.46;28.00;99817.16;4404455;29;20040;-64
2023/11/25 06:37:30;;;;;;;2.08;0.90;;;;;;;20.45;27.49;99813.50;4403771;29;20088;-64
2023/11/25 06:39:40;;;;;;;1.98;0.90;;;;;;;20.46;27.73;99817.16;4403705;29;20104;-64
2023/11/25 06:41:51;;;;;;;1.50;0.77;;;;;;;20.45;27.90;99813.50;4404972;29;20035;-64
2023/11/25 06:44:01;;;;;;;0.95;0.70;;;;;;;20.45;27.61;99809.78;4404567;29;20048;-64
2023/11/25 06:46:11;;;;;;;2.45;1.00;;;;;;;20.46;27.73;99817.16;4404172;29;20629;-64
2023/11/25 06:48:25;;;;;;;2.13;0.95;;;;;;;20.45;27.73;99809.78;4404188;29;20037;-64
2023/11/25 06:50:36;;;;;;;1.38;0.80;;;;;;;20.44;27.82;99817.56;4403730;29;21313;-64
2023/11/25 06:52:47;;;;;;;2.58;0.98;;;;;;;20.43;27.47;99813.06;4402997;29;20051;-64
2023/11/25 06:55:00;;;;;;;2.67;0.93;;;;;;;20.44;27.96;99816.72;4405339;29;20051;-64
2023/11/25 06:57:11;;;;;;;1.70;0.88;;;;;;;20.43;27.97;99818.78;4403550;29;20048;-64
2023/11/25 06:59:21;;;;;;;2.42;0.80;;;;;;;20.44;27.67;99813.84;4403574;29;20071;-65
2023/11/25 07:01:33;;;;;;;2.35;0.90;;;;;;;20.45;27.59;99818.41;4403648;29;20041;-64
2023/11/25 07:03:43;;;;;;;2.75;1.00;;;;;;;20.43;27.82;99813.06;4403317;29;20210;-64
2023/11/25 07:05:53;;;;;;;1.23;0.70;;;;;;;20.45;27.72;99822.09;4404225;29;20116;-64
2023/11/25 07:08:05;;;;;;;2.17;1.15;;;;;;;20.46;27.72;99817.16;4404022;29;20055;-65
2023/11/25 07:10:15;;;;;;;1.27;0.63;;;;;;;20.44;27.97;99819.59;4404909;29;20040;-64
2023/11/25 07:12:26;;;;;;;1.92;0.77;;;;;;;20.44;27.81;99813.84;4403404;29;20855;-64
2023/11/25 07:14:37;;;;;;;1.77;0.63;;;;;;;20.44;27.82;99806.09;4402993;29;20155;-64
2023/11/25 07:16:48;;;;;;;2.17;0.90;;;;;;;20.44;27.81;99805.25;4403712;29;20044;-65
2023/11/25 07:19:00;;;;;;;1.75;0.73;;;;;;;20.45;27.81;99809.78;4404054;29;20039;-64
2023/11/25 07:21:13;;;;;;;1.67;0.70;;;;;;;20.46;27.69;99802.84;4402774;29;20048;-64
2023/11/25 07:23:23;;;;;;;2.28;0.82;;;;;;;20.46;28.09;99797.09;4402486;29;20044;-64
2023/11/25 07:25:37;;;;;;;1.60;0.82;;;;;;;20.45;28.27;99799.16;4402741;29;20064;-64
2023/11/25 07:27:48;;;;;;;1.80;0.80;;;;;;;20.47;27.92;99801.66;4403652;29;20609;-64
2023/11/25 07:30:00;;;;;;;2.08;0.73;;;;;;;20.46;27.95;99795.06;4402660;29;20036;-64
2023/11/25 07:32:12;;;;;;;2.25;0.90;;;;;;;20.44;28.05;99786.03;4403417;29;21536;-64
2023/11/25 07:34:22;;;;;;;1.90;0.90;;;;;;;20.47;27.98;99795.91;4403857;29;20147;-64
2023/11/25 07:36:33;;;;;;;2.05;1.05;;;;;;;20.45;28.24;99787.69;4401642;29;20144;-64
2023/11/25 07:38:43;;;;;;;2.17;0.80;;;;;;;20.46;27.80;99799.97;4404356;29;20494;-64
2023/11/25 07:40:54;;;;;;;2.45;0.90;;;;;;;20.46;28.27;99799.97;4388437;29;20056;-64
2023/11/25 07:43:04;;;;;;;2.40;1.10;;;;;;;20.45;28.13;99793.44;4402649;29;20051;-64
2023/11/25 07:45:16;;;;;;;1.58;0.90;;;;;;;20.46;28.39;99788.50;4405602;29;20044;-64
2023/11/25 07:47:26;;;;;;;2.25;1.00;;;;;;;20.45;28.11;99781.97;4402719;29;20147;-64
2023/11/25 07:49:37;;;;;;;1.75;0.98;;;;;;;20.45;28.51;99767.63;4403956;29;20033;-64
2023/11/25 07:51:48;;;;;;;2.13;0.80;;;;;;;20.45;28.52;99775.41;4403382;29;20044;-64
2023/11/25 07:53:58;;;;;;;1.80;0.80;;;;;;;20.45;28.38;99784.00;4403660;29;20048;-64
2023/11/25 07:56:10;;;;;;;1.48;0.80;;;;;;;20.47;28.25;99790.19;4384797;29;24687;-64
2023/11/25 07:58:22;;;;;;;1.77;0.70;;;;;;;20.46;28.54;99792.22;4401445;29;20695;-65
2023/11/25 08:00:33;;;;;;;2.65;0.80;;;;;;;20.46;28.43;99812.28;4403340;29;20600;-65
2023/11/25 08:02:44;;;;;;;2.35;0.77;;;;;;;20.45;28.54;99799.16;4403044;29;20092;-64
2023/11/25 08:04:55;;;;;;;2.10;1.02;;;;;;;20.46;28.75;99805.72;4401828;29;20033;-64
2023/11/25 08:07:06;;;;;;;2.40;0.95;;;;;;;20.46;28.55;99808.56;4404989;29;20052;-64
2023/11/25 08:09:18;;;;;;;1.85;0.80;;;;;;;20.45;28.78;99799.16;4388634;29;20073;-64
2023/11/25 08:11:29;;;;;;;1.33;0.60;;;;;;;20.45;28.53;99801.19;4388371;29;20097;-65
2023/11/25 08:13:39;;;;;;;1.73;0.75;;;;;;;20.45;28.64;99796.31;4405563;29;20048;-65
2023/11/25 08:15:50;;;;;;;1.75;0.80;;;;;;;20.45;28.79;99804.06;4406445;29;20051;-65
2023/11/25 08:18:00;;;;;;;1.38;0.70;;;;;;;20.45;28.60;99802.03;4390945;29;20037;-64
2023/11/25 08:20:11;;;;;;;1.80;0.77;;;;;;;20.46;28.43;99808.56;4404817;29;20489;-64
2023/11/25 08:22:22;;;;;;;1.27;0.70;;;;;;;20.46;29.05;99794.25;4406043;29;20051;-65
2023/11/25 08:24:33;;;;;;;1.88;0.77;;;;;;;20.46;29.08;99812.28;4388875;29;20106;-65
2023/11/25 08:26:45;;;;;;;2.08;0.93;;;;;;;20.45;28.99;99798.34;4406185;29;20036;-65
2023/11/25 08:28:55;;;;;;;1.42;0.60;;;;;;;20.45;29.21;99798.34;4405295;29;20525;-65
2023/11/25 08:31:06;;;;;;;1.85;0.80;;;;;;;20.45;28.99;99795.47;4405238;29;20040;-65
2023/11/25 08:33:17;;;;;;;1.42;0.80;;;;;;;20.47;29.22;99784.44;4406025;29;20048;-65
2023/11/25 08:35:27;;;;;;;1.45;0.70;;;;;;;20.46;29.23;99782.78;4391607;29;20041;-65
2023/11/25 08:37:38;;;;;;;0.75;0.60;;;;;;;20.46;29.35;99774.19;4407303;29;20071;-65
2023/11/25 08:39:49;;;;;;;1.85;0.70;;;;;;;20.46;29.44;99779.91;4398187;29;20798;-65
2023/11/25 08:41:59;;;;;;;1.90;0.63;;;;;;;20.45;29.23;99775.41;4405434;29;20052;-65
2023/11/25 08:44:13;;;;;;;1.40;0.47;;;;;;;20.45;29.18;99775.41;4405790;29;20040;-65
2023/11/25 08:46:23;;;;;;;1.73;0.47;;;;;;;20.44;29.35;99770.84;4389556;29;20886;-65
2023/11/25 08:48:34;;;;;;;0.85;0.50;;;;;;;20.45;29.40;99776.22;4405167;29;20065;-66
2023/11/25 08:50:45;;;;;;;1.45;0.40;;;;;;;20.45;29.39;99776.22;4405973;29;20044;-65
2023/11/25 08:52:56;;;;;;;1.08;0.43;;;;;;;20.45;29.30;99775.41;4389177;29;20056;-65
2023/11/25 08:55:09;;;;;;;1.38;0.43;;;;;;;20.45;29.75;99778.28;4405409;29;20036;-65
2023/11/25 08:57:20;;;;;;;1.27;0.50;;;;;;;20.45;29.63;99775.41;4405995;29;20061;-65
2023/11/25 08:59:31;;;;;;;0.85;0.52;;;;;;;20.45;29.66;99775.41;4404610;29;20056;-65
2023/11/25 09:01:42;;;;;;;0.82;0.40;;;;;;;20.44;29.55;99768.00;4405396;29;20041;-65
2023/11/25 09:03:52;;;;;;;0.88;0.40;;;;;;;20.48;29.41;99783.22;4405216;29;20047;-65
2023/11/25 09:06:04;;;;;;;1.10;0.50;;;;;;;20.49;29.43;99770.53;4391257;29;20047;-65
2023/11/25 09:08:15;;;;;;;1.42;0.60;;;;;;;20.48;29.73;99768.88;4405335;29;20079;-65
2023/11/25 09:10:26;;;;;;;0.75;0.50;;;;;;;20.48;29.58;99769.72;4404704;29;20045;-65
2023/11/25 09:12:37;;;;;;;0.77;0.40;;;;;;;20.49;29.91;99764.78;4404787;29;20156;-65
2023/11/25 09:14:48;;;;;;;1.27;0.40;;;;;;;20.48;29.91;99766.88;4406378;29;20044;-65
2023/11/25 09:16:58;;;;;;;0.55;0.40;;;;;;;20.48;29.75;99766.03;4403886;29;20057;-64
2023/11/25 09:19:09;;;;;;;0.60;0.30;;;;;;;20.47;29.86;99764.38;4405477;29;20037;-65
2023/11/25 09:21:20;;;;;;;0.90;0.40;;;;;;;20.46;29.80;99760.69;4405668;29;20044;-64
2023/11/25 09:23:30;;;;;;;1.77;0.52;;;;;;;20.47;29.88;99758.66;4389426;29;20101;-64
2023/11/25 09:25:40;;;;;;;0.60;0.40;;;;;;;20.47;29.99;99767.25;4403481;29;20490;-64
2023/11/25 09:27:52;;;;;;;0.20;0.20;;;;;;;20.48;29.84;99763.16;4403470;29;21049;-65
2023/11/25 09:30:02;;;;;;;0.57;0.43;;;;;;;20.47;29.85;99758.66;4404435;29;20092;-65
2023/11/25 09:32:13;;;;;;;0.60;0.30;;;;;;;20.47;30.20;99762.31;4387187;29;20124;-65
2023/11/25 09:34:23;;;;;;;1.20;0.30;;;;;;;20.47;30.02;99772.97;4404174;29;20043;-65
2023/11/25 09:36:33;;;;;;;0.35;0.30;;;;;;;20.47;29.93;99758.66;4390034;29;20093;-65
2023/11/25 09:38:44;;;;;;;0.98;0.57;;;;;;;20.47;29.85;99764.38;4405503;29;20049;-65
2023/11/25 09:40:54;;;;;;;0.85;0.30;;;;;;;20.48;30.17;99758.25;4389464;29;21113;-65
2023/11/25 09:43:06;;;;;;;0.50;0.40;;;;;;;20.49;30.11;99776.25;4404906;29;20037;-65
2023/11/25 09:45:19;;;;;;;0.63;0.30;;;;;;;20.50;29.78;99772.22;4386171;29;20859;-66
2023/11/25 09:47:30;;;;;;;0.70;0.32;;;;;;;20.50;30.23;99778.75;4404894;29;20032;-66
2023/11/25 09:49:40;;;;;;;0.68;0.40;;;;;;;20.51;30.26;99779.59;4405537;29;20382;-67
2023/11/25 09:51:51;;;;;;;0.68;0.30;;;;;;;20.51;30.14;99766.09;4404583;29;20055;-66
2023/11/25 09:54:07;;;;;;;0.57;0.40;;;;;;;20.51;30.17;99768.13;4404122;29;20589;-66
2023/11/25 09:56:18;;;;;;;0.70;0.30;;;;;;;20.52;30.25;99770.59;4405586;29;20043;-66
2023/11/25 09:58:35;;;;;;;0.50;0.30;;;;;;;20.52;30.20;99766.88;4404191;29;20040;-66
2023/11/25 10:00:46;;;;;;;0.50;0.30;;;;;;;20.51;30.01;99773.84;4404790;29;20137;-66
2023/11/25 10:02:57;;;;;;;1.08;0.40;;;;;;;20.51;30.15;99757.47;4405635;29;20116;-66
2023/11/25 10:05:08;;;;;;;0.80;0.30;;;;;;;20.54;30.36;99762.44;4404596;29;20522;-66
2023/11/25 10:07:20;;;;;;;1.20;0.35;;;;;;;20.58;30.47;99762.50;4404676;29;20044;-66
2023/11/25 10:09:36;;;;;;;1.17;0.30;;;;;;;20.59;30.06;99764.13;4404702;29;20896;-66
2023/11/25 10:11:47;;;;;;;0.50;0.33;;;;;;;20.59;30.07;99770.72;4404538;29;20549;-66
2023/11/25 10:13:58;;;;;;;0.30;0.30;;;;;;;20.61;30.00;99773.19;4404892;29;20348;-66
2023/11/25 10:16:09;;;;;;;0.90;0.40;;;;;;;20.61;30.10;99767.47;4404929;29;20040;-66
2023/11/25 10:18:20;;;;;;;0.77;0.40;;;;;;;20.61;30.20;99773.19;4404280;29;20573;-66